Time;durP1;ratioP1;P1;durP2;ratioP2;P2;SDS_P1;SDS_P2;PMS_P1;PMS_P2;Temp;Humidity;BMP_temperature;BMP_pressure;BME280_temperature;BME280_humidity;BME280_pressure;Samples;Min_cycle;Max_cycle;Signal;HPM_P1;HPM_P2
2023/07/05 00:00:33;;;;;;;2.15;1.45;;;;;;;12.43;76.07;99712.16;5049496;28;20021;-63
2023/07/05 00:02:59;;;;;;;2.83;0.95;;;;;;;12.40;76.16;99713.06;5049403;28;20025;-63
2023/07/05 00:05:25;;;;;;;0.60;0.60;;;;;;;12.23;76.00;99685.78;5067530;28;20048;-64
2023/07/05 00:07:50;;;;;;;7.95;1.55;;;;;;;12.38;75.62;99722.69;5067946;28;20020;-64
2023/07/05 00:10:16;;;;;;;1.48;1.15;;;;;;;12.38;75.60;99715.72;5067577;28;20469;-63
2023/07/05 00:12:41;;;;;;;11.25;1.63;;;;;;;12.32;75.85;99721.09;5066099;28;20445;-64
2023/07/05 00:15:07;;;;;;;2.63;1.23;;;;;;;12.28;76.00;99716.88;5067371;28;20095;-65
2023/07/05 00:17:34;;;;;;;1.10;0.95;;;;;;;12.26;75.93;99732.53;5067441;28;20024;-65
2023/07/05 00:20:01;;;;;;;3.25;0.98;;;;;;;12.32;76.07;99730.63;5067414;28;20028;-63
2023/07/05 00:22:27;;;;;;;4.30;1.65;;;;;;;12.32;75.80;99734.09;5067249;28;20108;-63
2023/07/05 00:24:56;;;;;;;4.72;2.00;;;;;;;12.31;76.10;99735.00;5049184;28;20021;-64
2023/07/05 00:27:22;;;;;;;2.78;1.50;;;;;;;12.30;76.13;99722.88;5067299;28;20017;-63
2023/07/05 00:29:49;;;;;;;3.60;1.38;;;;;;;12.25;76.02;99714.34;5067050;28;20021;-63
2023/07/05 00:32:14;;;;;;;2.03;1.48;;;;;;;12.21;76.20;99734.38;5066850;28;20017;-63
2023/07/05 00:34:40;;;;;;;8.13;1.83;;;;;;;12.25;76.54;99729.97;5067245;28;20027;-64
2023/07/05 00:37:05;;;;;;;3.03;1.58;;;;;;;12.28;76.28;99737.69;5066845;28;20052;-63
2023/07/05 00:39:30;;;;;;;4.43;1.30;;;;;;;12.24;76.53;99742.13;5067136;28;20025;-63
2023/07/05 00:41:56;;;;;;;4.03;1.10;;;;;;;12.20;76.52;99737.91;5066994;28;20136;-64
2023/07/05 00:44:22;;;;;;;3.30;1.33;;;;;;;12.22;76.52;99743.06;5066839;28;20403;-63
2023/07/05 00:46:56;;;;;;;5.72;1.02;;;;;;;12.22;76.71;99746.50;5066779;28;20048;-63
2023/07/05 00:49:26;;;;;;;1.02;0.90;;;;;;;12.21;76.74;99754.34;5067005;28;20021;-64
2023/07/05 00:51:59;;;;;;;4.20;2.33;;;;;;;12.16;76.87;99745.81;5066913;28;20025;-63
2023/07/05 00:54:33;;;;;;;2.55;1.65;;;;;;;12.17;77.11;99753.59;5066832;28;20032;-64
2023/07/05 00:57:18;;;;;;;3.75;1.15;;;;;;;12.14;77.06;99749.28;5066924;28;20047;-64
2023/07/05 00:59:51;;;;;;;1.88;0.82;;;;;;;12.13;77.52;99757.13;5066795;28;20032;-63
2023/07/05 01:02:17;;;;;;;3.13;0.80;;;;;;;12.11;77.37;99759.78;5066389;28;20052;-64
2023/07/05 01:04:42;;;;;;;8.05;1.90;;;;;;;12.10;77.73;99755.47;5066544;28;20119;-63
2023/07/05 01:07:08;;;;;;;2.28;1.33;;;;;;;12.14;77.82;99761.47;5066451;28;20032;-64
2023/07/05 01:09:33;;;;;;;8.75;1.63;;;;;;;12.16;77.51;99758.84;5066381;28;20032;-65
2023/07/05 01:12:23;;;;;;;4.68;1.27;;;;;;;12.11;77.47;99754.59;5066633;28;20021;-65
2023/07/05 01:15:02;;;;;;;5.90;1.17;;;;;;;12.11;77.50;99758.91;5049213;28;20033;-64
2023/07/05 01:17:39;;;;;;;8.80;1.80;;;;;;;12.12;77.25;99764.09;5066202;28;20017;-64
2023/07/05 01:20:34;;;;;;;2.05;1.10;;;;;;;12.13;77.35;99762.34;5048505;28;20029;-65
2023/07/05 01:23:30;;;;;;;0.70;0.57;;;;;;;12.10;77.12;99771.09;5065989;28;20021;-65
2023/07/05 01:26:14;;;;;;;2.25;1.02;;;;;;;12.11;77.35;99769.31;5066230;28;20032;-64
2023/07/05 01:29:22;;;;;;;3.88;2.20;;;;;;;12.09;77.32;99769.38;5066312;28;20024;-64
2023/07/05 01:32:36;;;;;;;2.13;1.13;;;;;;;12.10;77.63;99763.28;5045121;28;20178;-64
2023/07/05 01:35:16;;;;;;;2.05;1.10;;;;;;;12.06;77.68;99772.00;5004381;28;20311;-64
2023/07/05 01:37:44;;;;;;;11.73;1.98;;;;;;;12.07;77.37;99768.53;4988224;28;20030;-64
2023/07/05 01:40:29;;;;;;;4.07;1.30;;;;;;;12.07;77.72;99765.94;5004160;28;20096;-64
2023/07/05 01:42:58;;;;;;;3.10;1.80;;;;;;;12.03;77.81;99772.09;4997299;28;20038;-64
2023/07/05 01:45:53;;;;;;;6.20;1.33;;;;;;;12.01;78.24;99773.91;5004151;28;20070;-64
2023/07/05 01:48:30;;;;;;;1.63;1.02;;;;;;;11.99;78.03;99765.25;5000388;28;20061;-63
2023/07/05 01:51:07;;;;;;;3.67;1.17;;;;;;;11.96;78.66;99779.22;5004069;28;20432;-63
2023/07/05 01:53:42;;;;;;;2.88;1.15;;;;;;;11.95;78.67;99774.06;5004280;28;20062;-63
2023/07/05 01:56:16;;;;;;;10.63;1.27;;;;;;;11.94;78.71;99772.31;5003778;28;20030;-63
2023/07/05 01:58:46;;;;;;;3.33;1.45;;;;;;;11.92;78.74;99767.16;5003718;28;20116;-64
2023/07/05 02:01:14;;;;;;;5.32;1.13;;;;;;;11.89;79.14;99773.31;4997387;28;20126;-64
2023/07/05 02:03:41;;;;;;;3.53;1.17;;;;;;;11.93;79.12;99781.88;4984573;28;20038;-63
2023/07/05 02:06:09;;;;;;;2.35;1.25;;;;;;;11.93;78.97;99775.81;5028073;28;20097;-63
2023/07/05 02:08:39;;;;;;;4.68;1.10;;;;;;;11.87;78.92;99771.59;5027582;28;20029;-64
2023/07/05 02:11:05;;;;;;;2.78;1.48;;;;;;;11.89;79.01;99778.50;5027850;28;20472;-63
2023/07/05 02:13:31;;;;;;;7.05;1.52;;;;;;;11.82;79.10;99773.50;5045653;28;20024;-64
2023/07/05 02:15:57;;;;;;;2.78;1.25;;;;;;;11.82;79.22;99778.69;5045298;28;20025;-64
2023/07/05 02:18:22;;;;;;;5.53;1.35;;;;;;;11.82;79.47;99776.91;5045128;28;20025;-64
2023/07/05 02:20:47;;;;;;;0.63;0.45;;;;;;;11.83;79.39;99778.66;5045289;28;20081;-63
2023/07/05 02:23:13;;;;;;;1.48;1.05;;;;;;;11.84;79.32;99785.56;5027497;28;20025;-63
2023/07/05 02:25:38;;;;;;;2.55;0.93;;;;;;;11.86;79.11;99788.13;5045112;28;20101;-63
2023/07/05 02:28:08;;;;;;;9.77;1.23;;;;;;;11.88;78.72;99788.94;5045380;28;20048;-64
2023/07/05 02:30:38;;;;;;;5.30;1.00;;;;;;;11.85;78.67;99782.06;5045021;28;20026;-64
2023/07/05 02:33:04;;;;;;;5.72;0.98;;;;;;;11.88;78.67;99797.63;5045044;28;20030;-64
2023/07/05 02:35:34;;;;;;;2.83;1.73;;;;;;;11.90;78.49;99797.56;5026726;28;20052;-63
2023/07/05 02:38:00;;;;;;;4.40;1.35;;;;;;;11.90;78.39;99792.38;5045258;28;20029;-63
2023/07/05 02:40:25;;;;;;;5.88;1.58;;;;;;;11.91;78.51;99801.88;5044786;28;20025;-62
2023/07/05 02:42:51;;;;;;;2.13;0.95;;;;;;;11.87;78.93;99792.41;5045146;28;20021;-62
2023/07/05 02:45:16;;;;;;;1.92;1.42;;;;;;;11.95;79.07;99795.69;5044669;28;20021;-63
2023/07/05 02:47:41;;;;;;;7.22;1.13;;;;;;;11.96;79.10;99801.75;5044685;28;20112;-63
2023/07/05 02:50:08;;;;;;;6.15;1.73;;;;;;;11.95;79.30;99803.50;5044878;28;20028;-63
2023/07/05 02:52:34;;;;;;;7.78;1.55;;;;;;;11.85;79.28;99784.66;5044894;28;20100;-62
2023/07/05 02:54:59;;;;;;;10.23;2.67;;;;;;;12.02;79.11;99801.59;5044950;28;20144;-63
2023/07/05 02:57:25;;;;;;;1.45;1.25;;;;;;;12.09;79.02;99813.59;5044884;28;20064;-63
2023/07/05 02:59:50;;;;;;;8.30;1.25;;;;;;;12.10;79.08;99804.06;5044769;28;20029;-63
2023/07/05 03:02:15;;;;;;;1.45;1.00;;;;;;;12.14;78.96;99795.31;5059698;28;20053;-63
2023/07/05 03:04:42;;;;;;;8.38;1.30;;;;;;;12.22;78.87;99801.16;5064748;28;20047;-63
2023/07/05 03:07:08;;;;;;;4.30;1.20;;;;;;;12.25;78.80;99802.84;5064490;28;20032;-64
2023/07/05 03:09:33;;;;;;;3.67;1.08;;;;;;;12.29;78.49;99803.59;5064898;28;20029;-63
2023/07/05 03:11:59;;;;;;;0.75;0.75;;;;;;;12.31;78.43;99786.19;5064775;28;20021;-64
2023/07/05 03:14:24;;;;;;;7.70;1.35;;;;;;;12.62;78.66;99809.66;5046677;28;20082;-63
2023/07/05 03:16:50;;;;;;;1.73;1.27;;;;;;;12.87;78.27;99806.44;5064669;28;20112;-63
2023/07/05 03:19:15;;;;;;;8.43;1.40;;;;;;;13.31;78.53;99807.78;5064650;28;20157;-64
2023/07/05 03:21:42;;;;;;;1.85;0.93;;;;;;;13.81;77.39;99808.06;5064678;28;20032;-63
2023/07/05 03:24:08;;;;;;;7.88;1.27;;;;;;;14.22;75.92;99798.03;5064661;28;20040;-63
2023/07/05 03:26:33;;;;;;;2.97;1.38;;;;;;;14.64;74.56;99798.38;5064537;28;20025;-64
2023/07/05 03:28:58;;;;;;;3.28;0.93;;;;;;;15.09;75.29;99803.78;5064324;28;20025;-64
2023/07/05 03:31:24;;;;;;;16.73;1.45;;;;;;;15.40;72.78;99800.00;5064300;28;20036;-64
2023/07/05 03:33:51;;;;;;;1.65;1.27;;;;;;;15.66;72.62;99794.66;5046650;28;20017;-64
2023/07/05 03:36:19;;;;;;;6.20;1.10;;;;;;;16.00;68.26;99806.44;5064409;28;20076;-64
2023/07/05 03:38:44;;;;;;;3.97;1.27;;;;;;;16.29;68.42;99807.03;5046578;28;20021;-63
2023/07/05 03:41:16;;;;;;;4.50;1.65;;;;;;;16.60;66.59;99810.06;5064372;28;20029;-63
2023/07/05 03:43:43;;;;;;;2.85;1.02;;;;;;;16.81;64.50;99824.03;5046456;28;20622;-64
2023/07/05 03:46:12;;;;;;;2.22;0.85;;;;;;;17.12;64.54;99823.59;5046805;28;20210;-63
2023/07/05 03:48:41;;;;;;;6.43;1.08;;;;;;;17.38;64.29;99822.41;5068057;28;20057;-63
2023/07/05 03:51:13;;;;;;;3.20;0.70;;;;;;;17.44;62.46;99823.91;5067875;28;20021;-64
2023/07/05 03:53:38;;;;;;;0.95;0.70;;;;;;;17.42;61.92;99816.09;5068054;28;20059;-63
2023/07/05 03:56:06;;;;;;;3.17;1.00;;;;;;;17.37;62.90;99818.09;5068026;28;20103;-64
2023/07/05 03:58:32;;;;;;;6.50;1.40;;;;;;;17.16;61.79;99827.78;5067823;28;20059;-64
2023/07/05 04:01:15;;;;;;;0.93;0.70;;;;;;;17.32;61.85;99839.28;5067620;28;20045;-64
2023/07/05 04:03:45;;;;;;;4.20;1.10;;;;;;;17.20;61.13;99840.69;5049688;28;20025;-63
2023/07/05 04:06:11;;;;;;;8.30;1.00;;;;;;;16.98;61.33;99835.53;5067736;28;20029;-64
2023/07/05 04:08:37;;;;;;;11.05;1.50;;;;;;;16.89;60.83;99838.53;5067812;28;20025;-63
2023/07/05 04:11:02;;;;;;;1.30;0.70;;;;;;;16.89;61.34;99854.28;5067632;28;20054;-64
2023/07/05 04:13:28;;;;;;;9.05;1.30;;;;;;;17.17;60.96;99855.72;5067774;28;20062;-63
2023/07/05 04:15:58;;;;;;;1.45;0.95;;;;;;;17.45;60.07;99855.31;5049233;28;20021;-64
2023/07/05 04:18:24;;;;;;;1.30;0.95;;;;;;;17.81;59.43;99845.78;5067395;28;20025;-64
2023/07/05 04:20:49;;;;;;;3.35;1.55;;;;;;;18.26;59.04;99853.28;5067375;28;20025;-64
2023/07/05 04:23:15;;;;;;;5.78;1.55;;;;;;;18.64;58.37;99848.81;5067457;28;20045;-65
2023/07/05 04:25:40;;;;;;;5.50;1.05;;;;;;;19.03;57.56;99855.56;5067048;28;20024;-65
2023/07/05 04:28:07;;;;;;;1.67;1.02;;;;;;;19.36;55.06;99847.75;5067312;28;20021;-65
2023/07/05 04:30:32;;;;;;;1.27;0.82;;;;;;;19.71;55.36;99855.50;5049285;28;20028;-65
2023/07/05 04:32:57;;;;;;;1.13;0.57;;;;;;;20.10;54.89;99849.84;5067086;28;20087;-65
2023/07/05 04:35:23;;;;;;;2.55;0.90;;;;;;;20.43;53.71;99847.03;5067239;28;20107;-64
2023/07/05 04:37:49;;;;;;;2.70;0.73;;;;;;;20.90;53.97;99849.56;5066810;28;20063;-64
2023/07/05 04:40:14;;;;;;;1.35;0.80;;;;;;;21.43;52.90;99853.41;5066925;28;20074;-64
2023/07/05 04:42:40;;;;;;;0.93;0.80;;;;;;;21.54;51.19;99850.94;5066844;28;20029;-64
2023/07/05 04:45:05;;;;;;;2.53;0.75;;;;;;;21.62;52.39;99861.03;5066705;28;20090;-64
2023/07/05 04:47:31;;;;;;;9.05;0.60;;;;;;;21.39;51.14;99852.75;5066613;28;20031;-64
2023/07/05 04:49:56;;;;;;;1.48;0.90;;;;;;;21.09;51.32;99859.00;5067085;28;20107;-65
2023/07/05 04:52:22;;;;;;;1.05;0.65;;;;;;;20.76;49.98;99863.59;5066993;28;20070;-64
2023/07/05 04:54:47;;;;;;;3.75;1.00;;;;;;;20.46;49.03;99851.28;5066988;28;20028;-65
2023/07/05 04:57:12;;;;;;;3.20;0.80;;;;;;;20.10;50.50;99866.50;5048876;28;20031;-64
2023/07/05 04:59:43;;;;;;;3.50;0.75;;;;;;;20.05;50.64;99858.88;5065983;28;20025;-64
2023/07/05 05:02:09;;;;;;;7.70;0.85;;;;;;;20.00;50.28;99845.06;5066532;28;20040;-64
2023/07/05 05:04:35;;;;;;;1.60;0.57;;;;;;;19.79;50.67;99871.69;5049095;28;20052;-64
2023/07/05 05:07:00;;;;;;;4.18;0.70;;;;;;;20.13;52.03;99866.34;5066573;28;20040;-65
2023/07/05 05:09:25;;;;;;;1.48;0.70;;;;;;;20.68;51.32;99855.28;5066588;28;20017;-65
2023/07/05 05:11:51;;;;;;;1.15;0.80;;;;;;;21.15;49.16;99873.63;5066696;28;20021;-64
2023/07/05 05:14:16;;;;;;;2.10;0.60;;;;;;;20.77;47.74;99867.06;5066564;28;20025;-64
2023/07/05 05:16:42;;;;;;;1.45;0.60;;;;;;;19.97;47.89;99868.13;5066314;28;20051;-64
2023/07/05 05:19:07;;;;;;;1.13;0.73;;;;;;;19.25;49.34;99872.03;5066490;28;20029;-64
2023/07/05 05:21:33;;;;;;;0.50;0.50;;;;;;;18.86;50.81;99866.97;5048451;28;20071;-64
2023/07/05 05:23:58;;;;;;;5.13;1.13;;;;;;;18.87;52.31;99878.31;5066232;28;20055;-63
2023/07/05 05:26:24;;;;;;;6.68;1.17;;;;;;;19.46;51.52;99882.31;5066034;28;20449;-62
2023/07/05 05:28:49;;;;;;;3.60;0.88;;;;;;;19.59;51.14;99883.34;5065979;28;20036;-62
2023/07/05 05:31:15;;;;;;;4.22;1.00;;;;;;;19.24;51.30;99881.69;5066162;28;20097;-62
2023/07/05 05:33:40;;;;;;;4.53;1.35;;;;;;;19.10;52.23;99881.56;5065919;28;20056;-62
2023/07/05 05:36:06;;;;;;;3.88;1.73;;;;;;;19.31;53.46;99879.59;5066066;28;20041;-63
2023/07/05 05:38:33;;;;;;;1.77;0.90;;;;;;;20.10;52.69;99868.28;5066074;28;20025;-63
2023/07/05 05:41:07;;;;;;;3.42;0.98;;;;;;;20.93;51.02;99875.78;5048219;28;20096;-63
2023/07/05 05:43:33;;;;;;;5.22;0.82;;;;;;;21.75;50.54;99892.78;5065979;28;20029;-63
2023/07/05 05:45:58;;;;;;;2.60;1.33;;;;;;;21.76;47.19;99888.31;5065786;28;20059;-63
2023/07/05 05:48:23;;;;;;;2.90;1.13;;;;;;;21.17;47.57;99895.47;5065664;28;20489;-65
2023/07/05 05:50:49;;;;;;;2.05;1.10;;;;;;;20.41;48.57;99885.84;5065661;28;20028;-63
2023/07/05 05:53:14;;;;;;;6.03;1.88;;;;;;;20.11;50.23;99894.53;5047711;28;20040;-64
2023/07/05 05:55:40;;;;;;;2.88;1.00;;;;;;;20.46;51.58;99897.88;5065680;28;20085;-64
2023/07/05 05:58:06;;;;;;;2.08;1.50;;;;;;;20.55;49.21;99903.47;5065674;28;20025;-63
2023/07/05 06:00:32;;;;;;;7.05;1.10;;;;;;;20.02;48.94;99906.47;5065352;28;20029;-63
2023/07/05 06:02:58;;;;;;;3.08;1.35;;;;;;;19.60;50.61;99908.72;5065443;28;20021;-63
2023/07/05 06:05:24;;;;;;;4.32;1.00;;;;;;;19.81;51.99;99906.69;5065603;28;20361;-63
2023/07/05 06:07:50;;;;;;;0.50;0.50;;;;;;;20.23;49.75;99885.09;5065755;28;20021;-64
2023/07/05 06:10:15;;;;;;;0.85;0.80;;;;;;;20.60;48.19;99897.06;5065344;28;20051;-64
2023/07/05 06:12:41;;;;;;;1.15;0.70;;;;;;;20.45;48.12;99889.13;5047390;28;20017;-63
2023/07/05 06:15:08;;;;;;;6.25;1.10;;;;;;;20.31;48.75;99896.06;5065473;28;20076;-63
2023/07/05 06:17:33;;;;;;;1.95;0.82;;;;;;;20.38;49.70;99893.94;5065185;28;20017;-63
2023/07/05 06:19:59;;;;;;;2.03;0.73;;;;;;;20.66;48.94;99891.44;5065223;28;20021;-63
2023/07/05 06:22:25;;;;;;;1.58;0.82;;;;;;;20.71;49.32;99904.34;5065346;28;20104;-63
2023/07/05 06:24:51;;;;;;;7.72;1.45;;;;;;;20.62;48.55;99889.94;5065436;28;20020;-64
2023/07/05 06:27:17;;;;;;;2.58;0.90;;;;;;;20.47;48.66;99900.44;5065284;28;20028;-63
2023/07/05 06:29:42;;;;;;;2.60;0.82;;;;;;;20.56;48.36;99894.63;5065228;28;20025;-62
2023/07/05 06:32:08;;;;;;;1.23;1.10;;;;;;;21.01;46.42;99914.91;5065089;28;20158;-64
2023/07/05 06:34:33;;;;;;;1.38;0.75;;;;;;;21.10;45.46;99904.72;5065253;28;20023;-63
2023/07/05 06:36:58;;;;;;;3.28;1.25;;;;;;;20.79;45.72;99913.53;5065151;28;20055;-63
2023/07/05 06:39:24;;;;;;;5.28;1.00;;;;;;;20.51;46.68;99909.84;5065441;28;20028;-63
2023/07/05 06:41:49;;;;;;;5.32;1.83;;;;;;;20.45;46.63;99912.84;5065075;28;20024;-64
2023/07/05 06:44:14;;;;;;;1.63;0.90;;;;;;;20.29;47.65;99919.00;5065251;28;20033;-62
2023/07/05 06:46:40;;;;;;;3.75;1.45;;;;;;;20.63;47.01;99910.06;5064701;28;20021;-63
2023/07/05 06:49:05;;;;;;;1.58;1.17;;;;;;;21.10;46.88;99917.91;5065104;28;20031;-64
2023/07/05 06:51:31;;;;;;;1.52;0.82;;;;;;;21.75;47.07;99913.91;5064987;28;20077;-64
2023/07/05 06:53:56;;;;;;;3.47;0.60;;;;;;;22.45;45.54;99905.09;5064965;28;20025;-63
2023/07/05 06:56:21;;;;;;;1.85;1.13;;;;;;;22.65;44.46;99906.47;5064899;28;20028;-64
2023/07/05 06:58:47;;;;;;;1.20;0.60;;;;;;;22.86;43.52;99908.59;5065007;28;20036;-64
2023/07/05 07:01:13;;;;;;;1.85;0.98;;;;;;;23.18;43.90;99902.84;5064373;28;20064;-64
2023/07/05 07:03:38;;;;;;;0.98;0.80;;;;;;;23.60;42.86;99902.59;5064848;28;20060;-63
2023/07/05 07:06:04;;;;;;;6.13;1.20;;;;;;;24.07;42.19;99914.31;5064752;28;20025;-64
2023/07/05 07:08:33;;;;;;;1.00;0.60;;;;;;;24.45;40.52;99912.44;5064913;28;20489;-64
2023/07/05 07:11:03;;;;;;;3.28;0.70;;;;;;;24.48;40.84;99918.38;5064820;28;20067;-63
2023/07/05 07:13:30;;;;;;;1.13;0.70;;;;;;;24.19;39.91;99910.78;5064744;28;20053;-63
2023/07/05 07:16:06;;;;;;;0.98;0.70;;;;;;;24.16;40.88;99918.97;5064696;28;20025;-62
2023/07/05 07:18:32;;;;;;;2.33;1.00;;;;;;;23.94;40.44;99914.38;5064667;28;20029;-64
2023/07/05 07:21:01;;;;;;;1.60;0.40;;;;;;;23.31;38.87;99907.31;5064649;28;20089;-64
2023/07/05 07:23:27;;;;;;;0.77;0.57;;;;;;;22.87;40.47;99918.22;5068681;28;20020;-63
2023/07/05 07:25:58;;;;;;;1.05;0.60;;;;;;;22.57;40.80;99929.91;5068556;28;20037;-64
2023/07/05 07:28:24;;;;;;;3.13;0.82;;;;;;;22.10;41.69;99919.69;5068736;28;20025;-63
2023/07/05 07:30:49;;;;;;;2.15;0.73;;;;;;;22.13;41.33;99925.63;5068486;28;20036;-64
2023/07/05 07:33:14;;;;;;;5.80;0.63;;;;;;;21.96;41.26;99924.09;5068180;28;20024;-63
2023/07/05 07:35:40;;;;;;;3.53;0.80;;;;;;;21.43;42.13;99922.06;5068589;28;20045;-65
2023/07/05 07:38:05;;;;;;;1.40;0.70;;;;;;;20.85;43.27;99925.47;5068375;28;20028;-64
2023/07/05 07:40:37;;;;;;;0.65;0.50;;;;;;;20.80;42.88;99931.03;5068322;28;20376;-63
2023/07/05 07:43:07;;;;;;;0.68;0.50;;;;;;;21.09;43.43;99926.75;5080542;22;20055;-64
2023/07/05 07:45:33;;;;;;;2.78;0.70;;;;;;;21.59;43.23;99923.75;5089116;22;20058;-71
2023/07/05 07:47:58;;;;;;;1.02;0.70;;;;;;;22.08;43.29;99921.63;5128519;28;20020;-73
2023/07/05 07:50:24;;;;;;;3.30;1.17;;;;;;;22.56;43.20;99925.56;5128806;28;20031;-71
2023/07/05 07:52:50;;;;;;;2.90;0.90;;;;;;;23.07;40.58;99926.59;5128900;28;20053;-72
2023/07/05 07:55:15;;;;;;;1.20;0.63;;;;;;;23.12;39.86;99924.47;5128698;28;20106;-72
2023/07/05 07:57:41;;;;;;;1.45;0.80;;;;;;;23.35;40.65;99927.31;5131893;22;20062;-64
2023/07/05 08:00:09;;;;;;;2.55;1.00;;;;;;;23.65;40.02;99918.16;5080387;22;20056;-72
2023/07/05 08:02:36;;;;;;;1.42;0.85;;;;;;;24.30;40.29;99922.41;5131191;22;20059;-63
2023/07/05 08:05:01;;;;;;;1.50;0.70;;;;;;;24.74;38.42;99928.84;5132697;22;20035;-72
2023/07/05 08:07:27;;;;;;;1.33;0.57;;;;;;;24.94;36.63;99920.31;5133043;22;20062;-61
2023/07/05 08:09:55;;;;;;;1.85;0.80;;;;;;;24.71;36.44;99929.03;5128453;28;20015;-62
2023/07/05 08:12:21;;;;;;;1.95;1.02;;;;;;;24.57;37.08;99924.78;5128651;28;20027;-61
2023/07/05 08:14:46;;;;;;;1.48;0.60;;;;;;;24.61;36.70;99917.44;5128510;28;20050;-62
2023/07/05 08:17:11;;;;;;;1.60;0.75;;;;;;;24.58;36.77;99926.50;5128410;28;20023;-61
2023/07/05 08:19:37;;;;;;;3.53;0.75;;;;;;;24.53;36.22;99919.84;5128325;28;20020;-61
2023/07/05 08:22:03;;;;;;;0.88;0.40;;;;;;;24.56;36.69;99919.59;5128474;28;20051;-62
2023/07/05 08:24:29;;;;;;;1.73;0.80;;;;;;;24.69;36.30;99909.75;5128149;28;20406;-61
2023/07/05 08:26:56;;;;;;;1.08;0.75;;;;;;;24.93;34.19;99915.97;5128206;28;20023;-62
2023/07/05 08:29:21;;;;;;;1.38;0.77;;;;;;;25.16;35.33;99919.47;5128226;28;20047;-61
2023/07/05 08:31:47;;;;;;;1.67;0.73;;;;;;;25.58;33.90;99928.66;5109549;28;20391;-61
2023/07/05 08:34:13;;;;;;;1.30;0.90;;;;;;;25.57;34.17;99926.97;5126984;28;20026;-61
2023/07/05 08:36:41;;;;;;;2.47;1.13;;;;;;;25.44;33.63;99913.81;5128010;28;20442;-61
2023/07/05 08:39:07;;;;;;;1.48;0.68;;;;;;;25.55;32.83;99923.59;5128073;28;20020;-62
2023/07/05 08:41:42;;;;;;;1.10;0.47;;;;;;;25.69;32.71;99923.34;5128059;28;20031;-61
2023/07/05 08:44:19;;;;;;;6.32;1.10;;;;;;;25.40;31.79;99923.84;5127794;28;20023;-62
2023/07/05 08:46:55;;;;;;;3.13;1.08;;;;;;;24.82;32.99;99912.31;5131355;22;20028;-72
2023/07/05 08:49:30;;;;;;;0.80;0.52;;;;;;;24.54;33.63;99926.84;5136265;22;20198;-72
2023/07/05 08:51:59;;;;;;;0.45;0.45;;;;;;;24.36;34.19;99919.31;5126056;28;20023;-72
2023/07/05 08:54:31;;;;;;;1.48;0.95;;;;;;;24.08;35.23;99914.22;5131306;22;20048;-64
2023/07/05 08:57:05;;;;;;;4.38;1.60;;;;;;;23.60;36.39;99920.28;5127708;28;20024;-64
2023/07/05 08:59:49;;;;;;;3.53;1.10;;;;;;;23.08;38.25;99925.63;5127732;28;20058;-62
2023/07/05 09:02:19;;;;;;;2.47;0.90;;;;;;;23.33;38.83;99915.97;5127246;28;20023;-64
2023/07/05 09:04:49;;;;;;;3.25;1.27;;;;;;;24.14;38.70;99915.53;5127697;28;20047;-64
2023/07/05 09:07:33;;;;;;;1.92;1.27;;;;;;;25.16;37.74;99916.00;5127453;28;20024;-63
2023/07/05 09:10:18;;;;;;;1.92;1.10;;;;;;;26.17;36.15;99905.34;5127604;28;20023;-63
2023/07/05 09:12:50;;;;;;;2.72;0.95;;;;;;;26.39;35.65;99902.75;5127454;28;20080;-63
2023/07/05 09:17:55;;;;;;;1.65;1.52;;;;;;;24.93;36.51;99906.22;5130841;22;20520;-71
2023/07/05 09:20:23;;;;;;;2.85;1.13;;;;;;;24.75;37.80;99903.13;5108589;28;20377;-71
2023/07/05 09:22:50;;;;;;;4.53;1.00;;;;;;;25.14;37.63;99902.84;5108636;28;20031;-72
2023/07/05 09:25:21;;;;;;;2.40;1.08;;;;;;;25.27;37.52;99905.38;5127021;28;20034;-72
2023/07/05 09:27:51;;;;;;;3.92;1.33;;;;;;;25.93;37.61;99906.38;5127250;28;20027;-72
2023/07/05 09:30:24;;;;;;;3.60;1.40;;;;;;;26.29;35.59;99892.84;5126956;28;20023;-74
2023/07/05 09:33:03;;;;;;;1.20;0.80;;;;;;;25.61;35.32;99899.16;5108450;28;20023;-73
2023/07/05 09:35:33;;;;;;;3.50;1.25;;;;;;;25.08;36.35;99909.47;5126850;28;20034;-73
2023/07/05 09:38:09;;;;;;;1.88;1.25;;;;;;;24.65;36.30;99902.16;5126974;28;20463;-73
2023/07/05 09:40:47;;;;;;;4.07;1.15;;;;;;;24.47;37.78;99906.06;5126474;28;20031;-73
2023/07/05 09:43:28;;;;;;;3.45;1.10;;;;;;;24.39;37.33;99900.50;5126641;28;20019;-74
2023/07/05 09:45:53;;;;;;;1.97;1.30;;;;;;;24.21;38.17;99884.16;5126254;28;20051;-73
2023/07/05 09:48:19;;;;;;;4.05;1.20;;;;;;;24.45;38.22;99893.88;5126453;28;20256;-73
2023/07/05 09:50:50;;;;;;;5.93;1.70;;;;;;;24.62;37.99;99882.84;5107067;28;20019;-72
2023/07/05 09:53:40;;;;;;;2.77;1.47;;;;;;;24.86;36.91;99891.66;5131015;22;20055;-63
2023/07/05 09:56:10;;;;;;;2.80;0.98;;;;;;;24.28;36.22;99898.66;5106192;28;20249;-63
2023/07/05 09:58:37;;;;;;;0.80;0.80;;;;;;;23.58;37.45;99896.56;5087940;28;20020;-64
2023/07/05 10:01:08;;;;;;;2.15;0.77;;;;;;;23.25;38.97;99909.44;5106014;28;20082;-63
2023/07/05 10:03:47;;;;;;;1.02;0.82;;;;;;;24.05;39.16;99900.31;5105719;28;20031;-63
2023/07/05 10:06:18;;;;;;;1.60;0.80;;;;;;;24.59;38.63;99890.19;5105694;28;20041;-63
2023/07/05 10:08:50;;;;;;;1.33;0.90;;;;;;;24.60;36.99;99883.94;5105961;28;20058;-63
2023/07/05 10:11:18;;;;;;;2.50;1.02;;;;;;;23.96;39.06;99886.78;5105795;28;20028;-63
2023/07/05 10:13:45;;;;;;;0.63;0.52;;;;;;;23.70;39.23;99889.56;5105747;28;20031;-63
2023/07/05 10:16:10;;;;;;;5.55;0.80;;;;;;;23.07;40.28;99876.31;5105815;28;20047;-63
2023/07/05 10:18:40;;;;;;;2.20;1.00;;;;;;;22.67;41.29;99888.66;5105637;28;20035;-64
2023/07/05 10:21:28;;;;;;;1.77;0.98;;;;;;;22.72;42.53;99883.06;5105604;28;20411;-63
2023/07/05 10:23:53;;;;;;;2.22;1.00;;;;;;;23.62;42.03;99878.66;5105505;28;20032;-63
2023/07/05 10:26:20;;;;;;;2.80;1.27;;;;;;;24.49;41.21;99871.44;5086903;28;20031;-63
2023/07/05 10:28:46;;;;;;;1.10;0.90;;;;;;;25.47;39.73;99887.00;5105567;28;20042;-63
2023/07/05 10:31:30;;;;;;;4.05;1.20;;;;;;;25.17;36.02;99877.84;5105361;28;20031;-63
2023/07/05 10:34:07;;;;;;;1.33;0.85;;;;;;;23.73;38.47;99870.78;5105392;28;20043;-64
2023/07/05 10:36:33;;;;;;;2.75;1.13;;;;;;;23.10;39.99;99863.69;5105425;28;20429;-63
2023/07/05 10:38:58;;;;;;;2.13;1.10;;;;;;;22.68;40.08;99874.50;5105537;28;20484;-63
2023/07/05 10:41:31;;;;;;;2.78;0.98;;;;;;;21.81;41.29;99872.22;5105430;28;20510;-64
2023/07/05 10:44:15;;;;;;;3.08;1.45;;;;;;;21.20;42.66;99881.25;5105469;28;20119;-63
2023/07/05 10:46:45;;;;;;;3.65;1.00;;;;;;;20.91;43.36;99871.53;5087180;28;20035;-62
2023/07/05 10:49:15;;;;;;;2.47;1.60;;;;;;;20.97;44.10;99863.25;5105221;28;20213;-63
2023/07/05 10:51:47;;;;;;;3.50;1.17;;;;;;;20.92;44.29;99876.72;5105332;28;20114;-63
2023/07/05 10:54:19;;;;;;;2.83;1.17;;;;;;;20.58;44.49;99869.94;5120494;28;20081;-63
2023/07/05 10:56:45;;;;;;;5.88;1.70;;;;;;;20.27;45.11;99865.53;5123816;28;20016;-63
2023/07/05 10:59:27;;;;;;;2.00;1.35;;;;;;;20.14;45.98;99861.91;5124651;28;20027;-62
2023/07/05 11:01:58;;;;;;;4.70;1.67;;;;;;;20.11;46.25;99862.09;5124407;28;20102;-62
2023/07/05 11:04:30;;;;;;;4.00;1.35;;;;;;;20.41;46.14;99859.47;5124926;28;20290;-62
2023/07/05 11:07:06;;;;;;;3.28;1.00;;;;;;;20.27;45.96;99847.06;5124610;28;20016;-63
2023/07/05 11:09:35;;;;;;;1.52;1.27;;;;;;;19.75;46.76;99850.88;5124740;28;20087;-63
2023/07/05 11:12:05;;;;;;;1.13;0.60;;;;;;;19.69;47.53;99867.88;5124713;28;20028;-64
2023/07/05 11:14:32;;;;;;;7.00;2.08;;;;;;;19.51;47.85;99852.16;5124877;28;20081;-64
2023/07/05 11:16:58;;;;;;;1.38;0.90;;;;;;;19.25;48.77;99859.69;5124479;28;20024;-63
2023/07/05 11:19:29;;;;;;;3.55;1.80;;;;;;;19.07;49.21;99848.34;5124722;28;20034;-63
2023/07/05 11:21:55;;;;;;;2.65;1.60;;;;;;;18.94;49.96;99856.03;5124307;28;20078;-63
2023/07/05 11:24:38;;;;;;;2.72;1.63;;;;;;;18.91;50.45;99850.94;5124678;28;20106;-63
2023/07/05 11:27:41;;;;;;;1.88;0.90;;;;;;;19.25;50.50;99859.69;5124326;28;20048;-63
2023/07/05 11:30:38;;;;;;;5.68;1.23;;;;;;;18.93;50.42;99825.41;5061083;28;20032;-64
2023/07/05 11:33:03;;;;;;;2.75;1.50;;;;;;;18.77;51.01;99839.34;5061349;28;20036;-63
2023/07/05 11:35:50;;;;;;;2.05;1.90;;;;;;;18.66;51.73;99842.53;5061457;28;20044;-62
2023/07/05 11:38:44;;;;;;;1.90;1.10;;;;;;;18.64;51.03;99841.75;5061316;28;20071;-63
2023/07/05 11:41:31;;;;;;;2.20;1.58;;;;;;;18.65;50.94;99846.09;5021523;28;20061;-63
2023/07/05 11:44:05;;;;;;;2.55;0.98;;;;;;;18.80;50.46;99846.25;5021621;28;20061;-63
2023/07/05 11:46:45;;;;;;;2.10;1.40;;;;;;;18.88;50.28;99846.66;5021535;28;20062;-63